Time;durP1;ratioP1;P1;durP2;ratioP2;P2;SDS_P1;SDS_P2;PMS_P1;PMS_P2;Temp;Humidity;BMP_temperature;BMP_pressure;BME280_temperature;BME280_humidity;BME280_pressure;Samples;Min_cycle;Max_cycle;Signal;HPM_P1;HPM_P2
2021/03/27 00:01:02;;;;;;;14.30;6.75;;;13.90;49.90;;;;;;4910183;28;20171;-63
2021/03/27 00:03:34;;;;;;;12.13;7.18;;;14.00;50.00;;;;;;4916770;28;20717;-63
2021/03/27 00:06:05;;;;;;;17.33;7.30;;;13.90;49.80;;;;;;4916888;28;20035;-63
2021/03/27 00:08:50;;;;;;;13.18;7.40;;;14.00;49.80;;;;;;4916433;28;20521;-64
2021/03/27 00:11:33;;;;;;;13.02;7.63;;;14.00;49.80;;;;;;4918180;28;20032;-63
2021/03/27 00:14:31;;;;;;;12.45;7.90;;;14.00;49.60;;;;;;4948330;28;20187;-65
2021/03/27 00:17:03;;;;;;;18.58;7.25;;;14.00;49.40;;;;;;4943292;28;20063;-63
2021/03/27 00:19:49;;;;;;;15.27;7.70;;;13.90;49.50;;;;;;4913924;28;20035;-64
2021/03/27 00:22:22;;;;;;;12.52;7.85;;;13.80;49.60;;;;;;4905948;28;20420;-64
2021/03/27 00:25:13;;;;;;;14.50;7.38;;;13.70;49.70;;;;;;4909326;28;20532;-63
2021/03/27 00:27:52;;;;;;;14.38;7.97;;;13.70;49.80;;;;;;4916170;28;20043;-64
2021/03/27 00:30:24;;;;;;;14.75;7.80;;;13.60;49.90;;;;;;4914340;28;20050;-64
2021/03/27 00:32:56;;;;;;;14.95;7.95;;;13.60;50.00;;;;;;4918269;28;20040;-63
2021/03/27 00:35:36;;;;;;;13.68;8.07;;;13.50;50.20;;;;;;4917059;28;20328;-64
2021/03/27 00:38:08;;;;;;;15.93;7.47;;;13.60;50.30;;;;;;4914736;28;20099;-63
2021/03/27 00:40:43;;;;;;;14.77;7.65;;;13.60;50.30;;;;;;4908185;28;20040;-64
2021/03/27 00:43:17;;;;;;;14.25;7.80;;;13.70;50.30;;;;;;4918162;28;20072;-63
2021/03/27 00:45:53;;;;;;;16.45;7.13;;;13.70;50.30;;;;;;4916633;28;20119;-63
2021/03/27 00:48:27;;;;;;;15.00;7.55;;;13.80;50.30;;;;;;4914386;28;20044;-63
2021/03/27 00:51:02;;;;;;;15.85;7.53;;;13.90;50.20;;;;;;4928673;28;20040;-63
2021/03/27 00:53:42;;;;;;;13.50;7.82;;;14.00;50.10;;;;;;4912308;28;20618;-64
2021/03/27 00:56:26;;;;;;;15.40;7.43;;;14.00;49.90;;;;;;4907839;28;20315;-64
2021/03/27 00:59:01;;;;;;;12.48;7.45;;;14.00;49.80;;;;;;4905431;28;20047;-64
2021/03/27 01:01:33;;;;;;;11.55;7.47;;;14.10;49.40;;;;;;4899067;28;20497;-64
2021/03/27 01:04:04;;;;;;;14.68;7.60;;;14.10;49.60;;;;;;4903518;28;20705;-64
2021/03/27 01:06:49;;;;;;;11.95;7.55;;;14.10;49.60;;;;;;4907164;28;20513;-63
2021/03/27 01:09:19;;;;;;;14.80;7.32;;;14.20;49.60;;;;;;4904475;28;20067;-63
2021/03/27 01:11:51;;;;;;;14.75;7.80;;;14.20;49.50;;;;;;4905353;28;20043;-63
2021/03/27 01:14:24;;;;;;;12.98;7.47;;;14.30;49.50;;;;;;4939366;28;20386;-63
2021/03/27 01:16:55;;;;;;;14.00;7.75;;;14.20;49.50;;;;;;4904207;28;20584;-63
2021/03/27 01:19:32;;;;;;;11.93;7.38;;;14.30;49.50;;;;;;4936194;28;20035;-64
2021/03/27 01:22:01;;;;;;;11.38;7.10;;;14.40;49.50;;;;;;4908842;28;20044;-64
2021/03/27 01:24:30;;;;;;;11.25;7.28;;;14.40;49.40;;;;;;4903826;28;20075;-63
2021/03/27 01:27:05;;;;;;;12.13;7.40;;;14.40;49.40;;;;;;4909245;28;20036;-64
2021/03/27 01:29:50;;;;;;;12.93;7.35;;;14.50;49.30;;;;;;4925624;28;20517;-63
2021/03/27 01:32:30;;;;;;;17.40;7.63;;;14.50;49.20;;;;;;4914788;28;20463;-65
2021/03/27 01:35:26;;;;;;;14.43;8.15;;;14.50;49.20;;;;;;4917033;28;20059;-63
2021/03/27 01:37:59;;;;;;;13.23;6.05;;;14.50;49.50;;;;;;4910050;28;20129;-64
2021/03/27 01:40:50;;;;;;;5.28;4.22;;;14.50;49.70;;;;;;4915563;28;20103;-63
2021/03/27 01:43:29;;;;;;;5.03;3.78;;;14.30;49.90;;;;;;4920571;28;20406;-63
2021/03/27 01:46:24;;;;;;;5.70;3.58;;;14.20;50.30;;;;;;4917836;28;20457;-63
2021/03/27 01:48:58;;;;;;;5.55;3.50;;;14.00;50.70;;;;;;4915634;28;20481;-64
2021/03/27 01:51:46;;;;;;;5.88;3.33;;;13.80;51.20;;;;;;4908321;28;20039;-64
2021/03/27 01:54:21;;;;;;;3.00;2.05;;;13.60;51.60;;;;;;4906667;28;20111;-63
2021/03/27 01:57:10;;;;;;;3.30;1.83;;;13.50;52.10;;;;;;4914535;28;20050;-63
2021/03/27 01:59:42;;;;;;;1.95;1.50;;;13.30;52.20;;;;;;4911257;28;20058;-62
2021/03/27 02:02:12;;;;;;;1.48;1.20;;;13.20;52.50;;;;;;4906283;28;20040;-64
2021/03/27 02:05:03;;;;;;;2.42;1.60;;;13.10;52.80;;;;;;4913244;28;20042;-63
2021/03/27 02:07:55;;;;;;;1.80;1.30;;;13.00;53.00;;;;;;4909667;28;20036;-64
2021/03/27 02:11:06;;;;;;;1.52;1.20;;;12.80;53.10;;;;;;4905660;28;21539;-63
2021/03/27 02:14:02;;;;;;;3.63;1.73;;;12.70;53.40;;;;;;4943087;28;20039;-63
2021/03/27 02:16:35;;;;;;;1.98;1.50;;;12.60;53.80;;;;;;4905419;28;20044;-64
2021/03/27 02:19:28;;;;;;;5.60;1.75;;;12.50;54.10;;;;;;4914481;28;20035;-63
2021/03/27 02:22:19;;;;;;;4.53;1.70;;;12.30;54.30;;;;;;4908555;28;20048;-63
2021/03/27 02:25:38;;;;;;;3.97;1.40;;;12.20;54.60;;;;;;4907481;28;20585;-65
2021/03/27 02:28:33;;;;;;;3.05;1.58;;;12.10;54.80;;;;;;4915586;28;20620;-64
2021/03/27 02:31:17;;;;;;;4.03;1.33;;;11.90;55.20;;;;;;4905245;28;20047;-63
2021/03/27 02:33:50;;;;;;;2.22;1.50;;;11.80;55.40;;;;;;4908760;28;20472;-63
2021/03/27 02:37:01;;;;;;;3.15;1.60;;;11.70;55.70;;;;;;4911414;28;20074;-64
2021/03/27 02:39:44;;;;;;;3.25;1.58;;;11.60;55.70;;;;;;4903807;28;20051;-63
2021/03/27 02:42:38;;;;;;;1.92;1.48;;;11.60;56.00;;;;;;4904589;28;20040;-63
2021/03/27 02:45:18;;;;;;;2.38;1.67;;;11.60;56.10;;;;;;4926030;28;20050;-64
2021/03/27 02:47:58;;;;;;;2.13;1.67;;;11.50;56.30;;;;;;4913181;28;20046;-63
2021/03/27 02:51:16;;;;;;;4.50;2.33;;;11.50;56.70;;;;;;4914326;28;20208;-62
2021/03/27 02:53:57;;;;;;;4.75;2.08;;;11.50;56.50;;;;;;4917341;28;20581;-64
2021/03/27 02:56:54;;;;;;;3.80;2.38;;;11.40;56.80;;;;;;4911792;28;20098;-62
2021/03/27 02:59:29;;;;;;;4.10;2.67;;;11.40;56.80;;;;;;4892160;28;20704;-62
2021/03/27 03:02:21;;;;;;;3.55;2.80;;;11.40;57.10;;;;;;4914641;28;20049;-62
2021/03/27 03:05:00;;;;;;;5.78;2.85;;;11.30;57.00;;;;;;4916906;28;20402;-63
2021/03/27 03:07:48;;;;;;;6.05;3.20;;;11.30;57.20;;;;;;4922613;28;20043;-62
2021/03/27 03:10:26;;;;;;;5.50;2.83;;;11.20;57.10;;;;;;4917204;28;20066;-63
2021/03/27 03:13:07;;;;;;;3.40;2.65;;;11.20;57.40;;;;;;4915274;28;20032;-63
2021/03/27 03:15:41;;;;;;;5.15;2.83;;;11.20;57.60;;;;;;4906822;28;20123;-62
2021/03/27 03:18:28;;;;;;;5.97;2.75;;;11.20;57.60;;;;;;4908116;28;21528;-63
2021/03/27 03:21:03;;;;;;;5.97;2.55;;;11.20;57.80;;;;;;4910312;28;20558;-62
2021/03/27 03:23:50;;;;;;;5.35;2.83;;;11.20;57.90;;;;;;4909274;28;20040;-62
2021/03/27 03:26:28;;;;;;;6.60;2.70;;;11.10;57.80;;;;;;4911893;28;20044;-62
2021/03/27 03:29:05;;;;;;;7.18;3.28;;;11.10;58.00;;;;;;4913298;28;20056;-63
2021/03/27 03:31:42;;;;;;;4.97;3.03;;;11.10;58.10;;;;;;4902625;28;21368;-63
2021/03/27 03:34:33;;;;;;;4.40;2.85;;;11.10;58.20;;;;;;4913173;28;20047;-63
2021/03/27 03:37:02;;;;;;;6.93;3.17;;;11.10;58.30;;;;;;4911430;28;20055;-62
2021/03/27 03:39:56;;;;;;;5.70;2.67;;;11.10;58.30;;;;;;4929168;28;20039;-62
2021/03/27 03:43:06;;;;;;;5.18;3.25;;;11.10;58.40;;;;;;4904004;28;20099;-63
2021/03/27 03:45:46;;;;;;;6.07;3.00;;;11.00;58.40;;;;;;4912450;28;20032;-63
2021/03/27 03:48:24;;;;;;;2.90;2.58;;;11.10;58.50;;;;;;4919645;28;20043;-61
2021/03/27 03:51:01;;;;;;;6.38;2.92;;;11.10;58.70;;;;;;4917810;28;20035;-63
2021/03/27 03:54:02;;;;;;;5.55;2.85;;;11.10;58.80;;;;;;4911306;28;20091;-62
2021/03/27 03:56:48;;;;;;;7.85;3.00;;;11.10;58.80;;;;;;4906307;28;20654;-62
2021/03/27 03:59:26;;;;;;;6.22;3.25;;;11.00;58.80;;;;;;4908402;28;20051;-61
2021/03/27 04:02:01;;;;;;;6.43;2.97;;;11.10;59.00;;;;;;4908856;28;20054;-62
2021/03/27 04:04:31;;;;;;;5.47;3.53;;;11.00;59.00;;;;;;4907626;28;20125;-62
2021/03/27 04:07:19;;;;;;;7.20;3.83;;;11.00;59.10;;;;;;4925921;28;20044;-63
2021/03/27 04:10:04;;;;;;;6.90;3.83;;;11.10;59.10;;;;;;4909323;28;20040;-62
2021/03/27 04:12:37;;;;;;;7.80;4.18;;;11.10;59.10;;;;;;4906358;28;20102;-62
2021/03/27 04:15:10;;;;;;;8.00;4.50;;;11.00;59.10;;;;;;4905215;28;20080;-61
2021/03/27 04:17:41;;;;;;;9.48;5.55;;;11.00;59.20;;;;;;4911664;28;20200;-62
2021/03/27 04:20:29;;;;;;;10.73;5.30;;;11.00;59.30;;;;;;4909253;28;20044;-61
2021/03/27 04:23:15;;;;;;;9.68;6.32;;;11.00;59.40;;;;;;4945876;28;20510;-62
2021/03/27 04:25:45;;;;;;;10.55;5.93;;;11.00;59.90;;;;;;4908471;28;20043;-63
2021/03/27 04:29:10;;;;;;;9.32;6.10;;;11.00;59.50;;;;;;4915669;28;20490;-62
2021/03/27 04:31:44;;;;;;;11.52;6.57;;;10.90;59.50;;;;;;4905702;28;20044;-61
2021/03/27 04:34:37;;;;;;;11.27;6.35;;;10.90;59.70;;;;;;4898038;28;20131;-63
2021/03/27 04:37:12;;;;;;;12.05;6.75;;;10.90;59.70;;;;;;4905690;28;20046;-62
2021/03/27 04:40:03;;;;;;;17.00;6.97;;;10.90;59.80;;;;;;4918772;28;20036;-62
2021/03/27 04:42:53;;;;;;;10.75;6.70;;;10.90;59.80;;;;;;4911510;28;20394;-62
2021/03/27 04:45:42;;;;;;;16.08;6.90;;;10.90;59.90;;;;;;4906739;28;22028;-63
2021/03/27 04:48:32;;;;;;;13.05;7.35;;;10.90;60.00;;;;;;4910242;28;20802;-61
2021/03/27 04:51:19;;;;;;;15.32;7.45;;;10.90;60.00;;;;;;4903742;28;20040;-63
2021/03/27 04:54:03;;;;;;;12.10;7.18;;;10.90;60.20;;;;;;4918720;28;20090;-62
2021/03/27 04:56:54;;;;;;;12.20;7.45;;;10.90;60.20;;;;;;4909589;28;20039;-62
2021/03/27 04:59:47;;;;;;;15.13;7.45;;;10.80;60.20;;;;;;4905466;28;20073;-64
2021/03/27 05:02:19;;;;;;;18.95;8.23;;;10.80;60.30;;;;;;4908330;28;23311;-63
2021/03/27 05:05:16;;;;;;;15.90;8.20;;;10.80;60.50;;;;;;4911971;28;20469;-63
2021/03/27 05:07:58;;;;;;;15.32;9.00;;;10.80;60.60;;;;;;4914877;28;20040;-63
2021/03/27 05:10:31;;;;;;;15.02;9.40;;;10.80;60.60;;;;;;4910314;28;20035;-62
2021/03/27 05:13:33;;;;;;;20.50;9.48;;;10.80;60.70;;;;;;4908843;28;20036;-62
2021/03/27 05:16:14;;;;;;;17.10;9.60;;;10.80;60.60;;;;;;4925122;28;20103;-62
2021/03/27 05:18:51;;;;;;;16.67;9.45;;;10.80;60.70;;;;;;4910749;28;20512;-62
2021/03/27 05:21:37;;;;;;;20.85;10.18;;;10.80;60.90;;;;;;4913239;28;20102;-63
2021/03/27 05:24:51;;;;;;;16.35;9.27;;;10.80;60.80;;;;;;4903472;28;20252;-63
2021/03/27 05:27:43;;;;;;;17.38;10.25;;;10.80;60.80;;;;;;4908348;28;20118;-63
2021/03/27 05:30:28;;;;;;;18.10;9.45;;;10.80;60.80;;;;;;4901606;28;20040;-63
2021/03/27 05:33:29;;;;;;;26.00;10.35;;;10.80;60.90;;;;;;4907556;28;20059;-62
2021/03/27 05:36:14;;;;;;;20.17;11.32;;;10.80;60.90;;;;;;4906393;28;20115;-63
2021/03/27 05:38:53;;;;;;;21.80;10.52;;;10.80;61.00;;;;;;4911969;28;20145;-63
2021/03/27 05:41:36;;;;;;;21.27;9.93;;;10.70;61.10;;;;;;4911230;28;20044;-61
2021/03/27 05:44:39;;;;;;;23.90;11.15;;;10.80;61.20;;;;;;4909750;28;20044;-62
2021/03/27 05:47:42;;;;;;;24.00;11.13;;;10.80;61.10;;;;;;4918909;28;20070;-62
2021/03/27 05:50:17;;;;;;;21.45;9.82;;;10.80;61.00;;;;;;4906728;28;20058;-62
2021/03/27 05:53:15;;;;;;;26.67;10.95;;;10.80;61.00;;;;;;4913601;28;20044;-63
2021/03/27 05:56:05;;;;;;;26.25;10.98;;;10.70;60.80;;;;;;4913550;28;20556;-63
2021/03/27 05:58:39;;;;;;;22.92;10.57;;;10.70;60.80;;;;;;4911845;28;20047;-61
2021/03/27 06:01:23;;;;;;;21.35;11.15;;;10.70;60.80;;;;;;4914189;28;20515;-63
2021/03/27 06:04:15;;;;;;;20.23;9.35;;;10.60;60.80;;;;;;4907296;28;20433;-62
2021/03/27 06:07:09;;;;;;;22.40;10.82;;;10.60;60.80;;;;;;4919171;28;20087;-63
2021/03/27 06:10:01;;;;;;;18.75;10.38;;;10.60;60.90;;;;;;4920887;28;20036;-63
2021/03/27 06:12:40;;;;;;;20.95;10.07;;;10.60;60.90;;;;;;4909972;28;20122;-63
2021/03/27 06:15:53;;;;;;;23.83;10.40;;;10.60;60.80;;;;;;4911420;28;20540;-62
2021/03/27 06:18:49;;;;;;;23.63;9.15;;;10.60;60.80;;;;;;4904840;28;20135;-62
2021/03/27 06:21:35;;;;;;;21.48;8.48;;;10.60;60.70;;;;;;4907631;28;20054;-62
2021/03/27 06:24:28;;;;;;;17.85;7.88;;;10.60;60.80;;;;;;4913961;28;20076;-63
2021/03/27 06:27:29;;;;;;;22.52;8.32;;;10.60;60.80;;;;;;4910710;28;20546;-62
2021/03/27 06:30:51;;;;;;;23.35;8.63;;;10.60;60.90;;;;;;4908346;28;20043;-63
2021/03/27 06:33:45;;;;;;;19.50;8.82;;;10.60;61.60;;;;;;4887501;29;20047;-63
2021/03/27 06:36:28;;;;;;;20.67;8.07;;;10.60;61.00;;;;;;4870141;29;20558;-63
2021/03/27 06:39:26;;;;;;;19.58;7.65;;;10.60;61.20;;;;;;4913757;28;20074;-63
2021/03/27 06:42:22;;;;;;;18.92;7.32;;;10.70;61.30;;;;;;4913752;28;20040;-63
2021/03/27 06:45:31;;;;;;;18.38;7.10;;;10.80;61.20;;;;;;4910888;28;20039;-62
2021/03/27 06:48:15;;;;;;;16.80;6.93;;;10.80;61.00;;;;;;4916757;28;20040;-62
2021/03/27 06:50:51;;;;;;;17.65;7.28;;;10.90;61.10;;;;;;4916338;28;20083;-63
2021/03/27 06:53:22;;;;;;;16.63;6.97;;;10.90;61.10;;;;;;4911108;28;20130;-62
2021/03/27 06:56:30;;;;;;;17.63;6.93;;;11.00;61.10;;;;;;4909800;28;20031;-62
2021/03/27 06:59:16;;;;;;;15.90;7.07;;;11.10;61.20;;;;;;4910005;28;20083;-62
2021/03/27 07:02:06;;;;;;;13.40;6.38;;;11.20;60.80;;;;;;4917052;28;20046;-62
2021/03/27 07:05:11;;;;;;;13.63;6.22;;;11.30;60.50;;;;;;4926444;28;20052;-62
2021/03/27 07:08:04;;;;;;;15.80;6.18;;;11.20;60.00;;;;;;4916200;28;20613;-63
2021/03/27 07:11:16;;;;;;;10.32;5.70;;;11.20;60.00;;;;;;4909428;28;20040;-63
2021/03/27 07:14:37;;;;;;;12.43;5.78;;;11.10;60.00;;;;;;4903585;28;20104;-62
2021/03/27 07:17:33;;;;;;;8.82;5.10;;;11.10;59.80;;;;;;4912709;28;20040;-63
2021/03/27 07:20:33;;;;;;;8.15;4.75;;;11.10;59.60;;;;;;4911723;28;20556;-62
2021/03/27 07:23:28;;;;;;;9.73;4.50;;;11.00;59.50;;;;;;4904079;28;20576;-61
2021/03/27 07:26:36;;;;;;;14.45;5.13;;;10.90;59.50;;;;;;4912402;28;20158;-62
2021/03/27 07:29:32;;;;;;;12.45;6.68;;;10.90;59.50;;;;;;4899422;28;20128;-62
2021/03/27 07:32:30;;;;;;;14.77;7.43;;;10.90;60.30;;;;;;4913039;28;20032;-62
2021/03/27 07:35:09;;;;;;;15.32;7.45;;;11.10;61.00;;;;;;4922037;28;20032;-63
2021/03/27 07:38:12;;;;;;;17.30;8.65;;;11.30;61.20;;;;;;4914281;28;20045;-62
2021/03/27 07:41:12;;;;;;;17.33;8.20;;;11.60;61.20;;;;;;4924124;28;20046;-62
2021/03/27 07:44:11;;;;;;;16.73;8.70;;;12.00;61.00;;;;;;4913273;28;20529;-61
2021/03/27 07:47:00;;;;;;;21.00;9.15;;;12.30;60.50;;;;;;4906788;28;20039;-63
2021/03/27 07:49:57;;;;;;;14.48;7.93;;;12.50;60.10;;;;;;4912841;28;20051;-62
2021/03/27 07:52:41;;;;;;;14.90;7.05;;;12.60;59.60;;;;;;4913731;28;20043;-63
2021/03/27 07:55:28;;;;;;;15.88;7.97;;;12.50;58.10;;;;;;4912649;28;20816;-62
2021/03/27 07:58:01;;;;;;;11.25;6.82;;;12.40;58.10;;;;;;4924581;28;20043;-62
2021/03/27 08:00:58;;;;;;;13.68;7.25;;;12.20;58.20;;;;;;4909408;28;22331;-62
2021/03/27 08:03:45;;;;;;;13.70;7.43;;;12.20;58.50;;;;;;4930427;28;20062;-62
2021/03/27 08:06:15;;;;;;;16.20;6.72;;;12.20;58.70;;;;;;4914898;28;20044;-63
2021/03/27 08:08:58;;;;;;;12.00;6.00;;;12.30;58.60;;;;;;4916040;28;20114;-63
2021/03/27 08:12:00;;;;;;;11.30;6.57;;;12.40;58.80;;;;;;4911742;28;20031;-64
2021/03/27 08:15:00;;;;;;;11.48;6.65;;;12.60;58.20;;;;;;4912453;28;20134;-62
2021/03/27 08:18:10;;;;;;;11.18;5.80;;;12.80;58.60;;;;;;4913684;28;20070;-63
2021/03/27 08:20:56;;;;;;;13.77;5.70;;;13.10;58.00;;;;;;4910951;28;20552;-64
2021/03/27 08:23:59;;;;;;;10.55;5.93;;;13.40;58.20;;;;;;4925780;23;20050;-63
2021/03/27 08:26:42;;;;;;;13.93;6.10;;;13.70;57.60;;;;;;4927447;28;20067;-63
2021/03/27 08:29:43;;;;;;;15.15;4.97;;;13.90;56.30;;;;;;4923291;28;20663;-63
2021/03/27 08:32:30;;;;;;;13.27;4.85;;;13.80;55.50;;;;;;4928565;28;20036;-63
2021/03/27 08:35:27;;;;;;;15.27;4.97;;;13.60;54.90;;;;;;4924259;28;20063;-64
2021/03/27 08:38:27;;;;;;;16.30;4.53;;;13.40;54.90;;;;;;4897211;29;20089;-64
2021/03/27 08:41:13;;;;;;;10.50;4.30;;;13.20;54.90;;;;;;4928633;28;20089;-64
2021/03/27 08:44:20;;;;;;;12.45;5.50;;;12.90;55.10;;;;;;4934420;28;20482;-64
2021/03/27 08:47:04;;;;;;;11.32;3.97;;;12.60;55.40;;;;;;4913542;28;20532;-63
2021/03/27 08:49:57;;;;;;;12.27;3.03;;;12.40;55.30;;;;;;4933421;28;20098;-64
2021/03/27 08:52:31;;;;;;;15.20;3.08;;;12.00;55.40;;;;;;4929335;28;20576;-66
2021/03/27 08:55:02;;;;;;;14.13;3.70;;;11.80;55.60;;;;;;4933399;28;20510;-67
2021/03/27 08:58:09;;;;;;;14.25;3.53;;;11.60;55.90;;;;;;4937171;28;20044;-65
2021/03/27 09:01:05;;;;;;;9.93;3.17;;;11.30;56.20;;;;;;4923610;28;20051;-65
2021/03/27 09:03:50;;;;;;;15.93;3.20;;;11.10;56.70;;;;;;4928444;28;20039;-66
2021/03/27 09:06:51;;;;;;;15.05;3.15;;;10.90;57.00;;;;;;4934737;28;20051;-65
2021/03/27 09:09:25;;;;;;;14.10;2.90;;;10.80;57.40;;;;;;4934043;28;20040;-65
2021/03/27 09:12:36;;;;;;;14.18;3.20;;;10.80;57.90;;;;;;4937074;28;20085;-65
2021/03/27 09:15:36;;;;;;;17.45;2.60;;;10.80;58.50;;;;;;4927718;28;20102;-65
2021/03/27 09:18:21;;;;;;;15.60;2.80;;;11.00;59.00;;;;;;4934142;28;20508;-65
2021/03/27 09:21:22;;;;;;;12.38;2.35;;;11.50;60.00;;;;;;4932406;28;20489;-65
2021/03/27 09:23:54;;;;;;;14.52;3.05;;;12.30;59.50;;;;;;4930383;28;20043;-66
2021/03/27 09:26:25;;;;;;;11.23;3.05;;;13.00;58.30;;;;;;4929111;28;20047;-65
2021/03/27 09:29:16;;;;;;;15.82;2.80;;;13.70;57.90;;;;;;4930862;28;20036;-64
2021/03/27 09:32:03;;;;;;;13.90;2.22;;;14.90;57.50;;;;;;4934302;28;20047;-64
2021/03/27 09:34:41;;;;;;;9.00;2.25;;;;;;;;;;4951059;28;20098;-64
2021/03/27 09:37:15;;;;;;;19.40;3.13;;;;;;;;;;4937362;28;20062;-63
2021/03/27 09:40:05;;;;;;;16.20;2.92;;;;;;;;;;4927649;28;20430;-64
2021/03/27 09:42:43;;;;;;;8.80;2.55;;;;;;;;;;4925688;28;20047;-65
2021/03/27 09:45:36;;;;;;;12.27;2.85;;;16.70;55.10;;;;;;4927705;28;20035;-65
2021/03/27 09:48:32;;;;;;;11.90;2.33;;;18.90;44.20;;;;;;4922442;28;20150;-64
2021/03/27 09:51:15;;;;;;;22.95;3.20;;;18.50;44.60;;;;;;4933202;23;20784;-64
2021/03/27 09:54:27;;;;;;;12.75;2.88;;;18.00;45.00;;;;;;4901849;28;20043;-64
2021/03/27 09:57:09;;;;;;;13.15;2.78;;;17.50;45.10;;;;;;4865656;29;20041;-65
2021/03/27 10:00:10;;;;;;;17.85;3.47;;;17.10;45.60;;;;;;4874050;29;20128;-64
2021/03/27 10:02:36;;;;;;;12.40;2.63;;;;;;;;;;4884589;29;20135;-62
2021/03/27 10:05:23;;;;;;;16.10;2.75;;;16.70;46.30;;;;;;4896528;29;20577;-61
2021/03/27 10:08:07;;;;;;;21.50;3.15;;;16.50;47.80;;;;;;4897189;29;20508;-62
2021/03/27 10:10:51;;;;;;;9.77;2.47;;;16.40;46.80;;;;;;4897075;29;20059;-64
2021/03/27 10:13:59;;;;;;;6.90;2.03;;;15.90;45.80;;;;;;4896197;29;20035;-64
2021/03/27 10:16:53;;;;;;;8.05;2.00;;;15.30;46.30;;;;;;4892369;29;20051;-63
2021/03/27 10:19:18;;;;;;;20.92;4.10;;;14.60;47.30;;;;;;4900038;29;20043;-64
2021/03/27 10:21:51;;;;;;;12.18;2.35;;;14.50;48.90;;;;;;4904655;29;20485;-64
2021/03/27 10:24:43;;;;;;;18.00;2.97;;;14.50;48.80;;;;;;4911160;29;20051;-64
2021/03/27 10:27:45;;;;;;;15.95;3.35;;;14.70;49.60;;;;;;4864241;29;21613;-65
2021/03/27 10:30:20;;;;;;;14.48;3.17;;;15.40;50.00;;;;;;4883684;29;20048;-65
2021/03/27 10:32:54;;;;;;;8.88;2.50;;;15.90;47.90;;;;;;4890010;29;20044;-64
2021/03/27 10:35:47;;;;;;;10.82;2.72;;;15.90;46.80;;;;;;4888298;29;20099;-64
2021/03/27 10:38:46;;;;;;;10.48;2.63;;;15.50;45.50;;;;;;4886394;29;20046;-65
2021/03/27 10:41:29;;;;;;;7.93;2.30;;;14.60;45.80;;;;;;4886192;29;20044;-64
2021/03/27 10:44:08;;;;;;;10.02;2.05;;;13.80;46.90;;;;;;4886057;29;20043;-65
2021/03/27 10:46:58;;;;;;;8.02;2.38;;;13.30;48.10;;;;;;4894739;29;20611;-64
2021/03/27 10:49:27;;;;;;;17.17;2.67;;;13.10;50.00;;;;;;4892384;29;20036;-65
2021/03/27 10:52:10;;;;;;;10.30;2.05;;;13.40;50.50;;;;;;4892830;29;20044;-64
2021/03/27 10:55:14;;;;;;;8.07;1.98;;;14.10;50.90;;;;;;4896015;29;20119;-65
2021/03/27 10:58:06;;;;;;;13.90;2.10;;;15.60;51.30;;;;;;4895551;28;20044;-65
2021/03/27 11:00:57;;;;;;;9.65;2.10;;;17.90;47.60;;;;;;4887403;29;20049;-65
2021/03/27 11:03:22;;;;;;;13.15;2.20;;;;;;;;;;4896710;29;20138;-66
2021/03/27 11:06:18;;;;;;;17.10;2.50;;;20.00;43.60;;;;;;4897895;29;20047;-65
2021/03/27 11:09:04;;;;;;;13.32;2.80;;;;;;;;;;4904043;29;20036;-65
2021/03/27 11:11:50;;;;;;;16.45;3.03;;;;;;;;;;4895140;29;20598;-65
2021/03/27 11:14:40;;;;;;;14.27;2.58;;;21.60;36.30;;;;;;4895910;29;20040;-65
2021/03/27 11:17:43;;;;;;;12.13;2.60;;;18.10;39.30;;;;;;4898318;29;20063;-65
2021/03/27 11:20:32;;;;;;;10.05;2.60;;;17.40;41.00;;;;;;4905868;29;20075;-65
2021/03/27 11:23:09;;;;;;;19.48;2.72;;;;;;;;;;4895851;29;20248;-65
2021/03/27 11:26:14;;;;;;;9.25;2.15;;;17.00;41.90;;;;;;4893461;29;20060;-64
2021/03/27 11:28:48;;;;;;;14.15;2.50;;;16.00;41.80;;;;;;4899758;29;20119;-64
2021/03/27 11:31:38;;;;;;;12.50;2.40;;;15.10;42.60;;;;;;4901097;29;20116;-64
2021/03/27 11:34:26;;;;;;;7.60;1.92;;;14.40;43.60;;;;;;4892646;29;20454;-64
2021/03/27 11:37:12;;;;;;;11.35;2.35;;;13.90;44.80;;;;;;4897685;29;20183;-64
2021/03/27 11:39:55;;;;;;;8.40;1.60;;;13.50;46.10;;;;;;4892752;29;20421;-64
2021/03/27 11:42:42;;;;;;;7.93;1.88;;;13.60;48.60;;;;;;4901332;28;20557;-65
2021/03/27 11:45:24;;;;;;;7.60;2.00;;;14.00;47.60;;;;;;4900505;29;20091;-65
2021/03/27 11:48:00;;;;;;;15.25;2.33;;;14.10;46.80;;;;;;4903707;29;20044;-64
2021/03/27 11:50:43;;;;;;;11.73;2.42;;;14.00;47.10;;;;;;4892859;29;20615;-64
2021/03/27 11:53:30;;;;;;;6.95;2.20;;;13.90;46.90;;;;;;4892891;29;20134;-64
2021/03/27 11:56:18;;;;;;;9.88;2.70;;;13.80;48.20;;;;;;4895996;29;20037;-64
2021/03/27 12:02:23;;;;;;;11.40;2.28;;;14.10;47.50;;;;;;4891614;29;20597;-63
2021/03/27 12:05:04;;;;;;;7.53;2.30;;;14.10;47.90;;;;;;4888237;29;20696;-64
2021/03/27 12:07:58;;;;;;;17.20;2.67;;;14.20;49.10;;;;;;4886452;29;20051;-64
2021/03/27 12:11:02;;;;;;;10.93;2.50;;;15.00;49.60;;;;;;4903960;28;20095;-64
2021/03/27 12:13:45;;;;;;;12.65;2.45;;;16.00;47.60;;;;;;4889555;29;20135;-64
2021/03/27 12:16:28;;;;;;;7.60;1.95;;;16.20;45.40;;;;;;4896186;29;20675;-64
2021/03/27 12:19:02;;;;;;;8.80;1.73;;;15.80;44.00;;;;;;4885470;29;20043;-64
2021/03/27 12:21:45;;;;;;;11.35;1.40;;;15.30;43.90;;;;;;4890039;29;20048;-63
2021/03/27 12:24:11;;;;;;;8.02;1.73;;;14.80;44.00;;;;;;4883723;28;20039;-63
2021/03/27 12:26:52;;;;;;;7.40;1.60;;;14.50;44.70;;;;;;4888461;29;20059;-64
2021/03/27 12:29:40;;;;;;;5.40;1.20;;;14.30;44.70;;;;;;4886421;29;20071;-64
2021/03/27 12:32:43;;;;;;;8.43;1.40;;;14.20;45.20;;;;;;4889352;29;20040;-64
2021/03/27 12:35:25;;;;;;;14.32;2.10;;;14.00;44.70;;;;;;4886859;29;20067;-63
2021/03/27 12:38:01;;;;;;;10.25;1.98;;;;;;;;;;4881194;29;20470;-63
2021/03/27 12:40:34;;;;;;;17.70;2.60;;;13.90;45.10;;;;;;4886143;29;20048;-63
2021/03/27 12:43:16;;;;;;;11.27;2.30;;;13.90;45.70;;;;;;4892043;29;20569;-64
2021/03/27 12:45:48;;;;;;;10.95;2.45;;;13.90;45.90;;;;;;4890513;29;20071;-64
2021/03/27 12:48:18;;;;;;;10.95;2.35;;;;;;;;;;4890088;29;20090;-64
2021/03/27 12:51:10;;;;;;;8.00;1.80;;;14.20;46.80;;;;;;4881653;29;20044;-65
2021/03/27 12:54:23;;;;;;;10.00;2.13;;;15.20;45.50;;;;;;4887908;29;20100;-65
2021/03/27 12:57:16;;;;;;;11.32;2.22;;;15.30;44.00;;;;;;4893602;29;20104;-65
2021/03/27 13:00:08;;;;;;;10.25;2.53;;;15.40;45.00;;;;;;4888953;29;20123;-65
2021/03/27 13:02:52;;;;;;;9.52;3.03;;;15.70;44.60;;;;;;4896542;29;20047;-65
2021/03/27 13:05:42;;;;;;;13.55;2.40;;;16.00;43.90;;;;;;4890124;29;20992;-65
2021/03/27 13:08:08;;;;;;;13.55;2.10;;;16.00;44.20;;;;;;4909001;28;20066;-64
2021/03/27 13:10:51;;;;;;;9.07;2.33;;;16.20;44.30;;;;;;4890332;28;20490;-65
2021/03/27 13:13:48;;;;;;;8.27;2.60;;;16.30;43.20;;;;;;4898678;28;20036;-65
2021/03/27 13:16:46;;;;;;;13.45;2.53;;;16.30;43.00;;;;;;4892814;29;20573;-65
2021/03/27 13:19:35;;;;;;;5.32;1.75;;;16.10;41.80;;;;;;4894757;29;20054;-65
2021/03/27 13:22:27;;;;;;;7.97;1.50;;;15.90;41.90;;;;;;4896143;29;20046;-66
2021/03/27 13:24:56;;;;;;;6.50;1.58;;;;;;;;;;4886349;29;20059;-66
2021/03/27 13:27:35;;;;;;;8.27;1.70;;;;;;;;;;4887789;29;20044;-65
2021/03/27 13:30:20;;;;;;;4.95;1.55;;;;;;;;;;4899422;29;20113;-65
2021/03/27 13:33:01;;;;;;;6.35;1.55;;;;;;;;;;4891327;29;20046;-65
2021/03/27 13:35:47;;;;;;;6.85;1.33;;;15.90;42.40;;;;;;4896138;29;20518;-65
2021/03/27 13:38:17;;;;;;;7.43;1.23;;;15.00;42.20;;;;;;4884027;29;20135;-65
2021/03/27 13:40:43;;;;;;;6.25;1.33;;;;;;;;;;4896235;29;20040;-64
2021/03/27 13:43:09;;;;;;;4.05;1.25;;;;;;;;;;4893834;29;20093;-64
2021/03/27 13:45:55;;;;;;;7.88;1.55;;;14.70;42.50;;;;;;4893892;29;20090;-64
2021/03/27 13:48:29;;;;;;;5.22;1.50;;;13.80;43.70;;;;;;4887154;29;20066;-64
2021/03/27 13:51:04;;;;;;;3.15;1.02;;;13.60;44.40;;;;;;4894629;29;20048;-64
2021/03/27 13:53:48;;;;;;;3.55;1.00;;;13.50;45.30;;;;;;4892587;29;20048;-64
2021/03/27 13:56:32;;;;;;;2.25;0.70;;;;;;;;;;4883017;29;20043;-64
2021/03/27 13:59:07;;;;;;;3.42;1.38;;;;;;;;;;4904241;28;20091;-69
2021/03/27 14:01:33;;;;;;;7.43;1.30;;;;;;;;;;4890523;29;20051;-67
2021/03/27 14:04:05;;;;;;;2.80;0.90;;;;;;;;;;4887151;29;20041;-66
2021/03/27 14:06:51;;;;;;;5.72;1.42;;;;;;;;;;4883463;29;20510;-66
2021/03/27 14:09:32;;;;;;;3.03;0.88;;;;;;;;;;4883013;29;20611;-67
2021/03/27 14:12:01;;;;;;;2.85;0.85;;;;;;;;;;4890051;28;20040;-64
2021/03/27 14:14:33;;;;;;;3.92;1.58;;;;;;;;;;4899136;29;20106;-64
2021/03/27 14:17:25;;;;;;;4.47;1.15;;;;;;;;;;4885684;29;20913;-63
2021/03/27 14:20:00;;;;;;;2.35;1.15;;;;;;;;;;4878713;29;20966;-64
2021/03/27 14:22:47;;;;;;;3.63;1.38;;;13.70;45.90;;;;;;4886488;29;20495;-63
2021/03/27 14:25:20;;;;;;;4.60;1.02;;;;;;;;;;4874880;29;20049;-63
2021/03/27 14:27:54;;;;;;;4.93;1.20;;;14.40;44.10;;;;;;4892522;29;20537;-62